createdAt,value
2024-02-05T00:00:29.690Z,5.90
2024-02-05T00:01:31.631Z,5.90
2024-02-05T00:02:33.582Z,5.90
2024-02-05T00:03:35.336Z,5.80
2024-02-05T00:04:37.631Z,5.80
2024-02-05T00:05:39.084Z,5.80
2024-02-05T00:06:40.831Z,5.80
2024-02-05T00:07:42.740Z,5.70
2024-02-05T00:08:44.315Z,5.70
2024-02-05T00:09:45.837Z,5.70
2024-02-05T00:10:47.490Z,5.70
2024-02-05T00:11:48.888Z,5.70
2024-02-05T00:12:50.282Z,5.60
2024-02-05T00:13:51.747Z,5.60
2024-02-05T00:14:53.484Z,5.70
2024-02-05T00:15:54.909Z,5.70
2024-02-05T00:16:56.265Z,5.70
2024-02-05T00:17:57.819Z,5.80
2024-02-05T00:18:59.780Z,5.80
2024-02-05T00:20:01.587Z,5.80
2024-02-05T00:21:04.192Z,5.80
2024-02-05T00:22:05.617Z,5.80
2024-02-05T00:23:07.028Z,5.70
2024-02-05T00:24:09.078Z,5.70
2024-02-05T00:25:11.625Z,5.70
2024-02-05T00:26:13.161Z,5.70
2024-02-05T00:27:15.055Z,5.60
2024-02-05T00:28:16.436Z,5.60
2024-02-05T00:29:17.907Z,5.50
2024-02-05T00:30:19.619Z,5.50
2024-02-05T00:31:21.129Z,5.50
2024-02-05T00:32:22.566Z,5.40
2024-02-05T00:33:23.970Z,5.40
2024-02-05T00:34:25.557Z,5.40
2024-02-05T00:35:27.368Z,5.50
2024-02-05T00:36:29.838Z,5.50
2024-02-05T00:37:31.134Z,5.50
2024-02-05T00:38:32.467Z,5.50
2024-02-05T00:39:34.113Z,5.60
2024-02-05T00:40:35.988Z,5.60
2024-02-05T00:41:38.024Z,5.50
2024-02-05T00:42:39.659Z,5.50
2024-02-05T00:43:40.997Z,5.50
2024-02-05T00:44:42.612Z,5.60
2024-02-05T00:45:44.166Z,5.60
2024-02-05T00:46:45.687Z,5.50
2024-02-05T00:47:47.395Z,5.50
2024-02-05T00:48:49.296Z,5.60
2024-02-05T00:49:51.176Z,5.60
2024-02-05T00:50:52.712Z,5.60
2024-02-05T00:51:54.091Z,5.60
2024-02-05T00:52:55.574Z,5.60
2024-02-05T00:53:58.621Z,5.60
2024-02-05T00:55:00.400Z,5.70
2024-02-05T00:56:02.348Z,5.70
2024-02-05T00:57:04.817Z,5.60
2024-02-05T00:58:06.294Z,5.60
2024-02-05T00:59:07.753Z,5.60
2024-02-05T01:00:09.810Z,5.70
2024-02-05T01:01:12.943Z,5.70
2024-02-05T01:02:14.563Z,5.80
2024-02-05T01:03:15.925Z,5.80
2024-02-05T01:04:17.453Z,5.80
2024-02-05T01:05:19.328Z,5.90
2024-02-05T01:06:21.022Z,5.80
2024-02-05T01:07:23.078Z,5.80
2024-02-05T01:08:24.541Z,5.90
2024-02-05T01:09:26.440Z,5.90
2024-02-05T01:10:27.816Z,5.90
2024-02-05T01:11:29.152Z,5.90
2024-02-05T01:12:30.534Z,5.90
2024-02-05T01:13:31.843Z,5.90
2024-02-05T01:14:34.070Z,5.90
2024-02-05T01:15:35.599Z,5.90
2024-02-05T01:16:37.386Z,5.90
2024-02-05T01:17:38.725Z,6.00
2024-02-05T01:18:40.249Z,6.10
2024-02-05T01:19:42.334Z,5.90
2024-02-05T01:20:45.207Z,6.00
2024-02-05T01:21:46.629Z,5.90
2024-02-05T01:22:48.947Z,6.00
2024-02-05T01:23:50.401Z,6.10
2024-02-05T01:24:51.759Z,6.00
2024-02-05T01:25:53.763Z,6.10
2024-02-05T01:26:55.399Z,6.10
2024-02-05T01:27:56.824Z,6.10
2024-02-05T01:28:58.230Z,6.00
2024-02-05T01:29:59.728Z,6.10
2024-02-05T01:31:01.330Z,5.90
2024-02-05T01:32:03.087Z,6.00
2024-02-05T01:33:04.796Z,6.00
2024-02-05T01:34:06.533Z,6.00
2024-02-05T01:35:08.990Z,6.00
2024-02-05T01:36:11.350Z,6.00
2024-02-05T01:37:13.488Z,6.10
2024-02-05T01:38:14.976Z,6.10
2024-02-05T01:39:16.973Z,6.10
2024-02-05T01:40:18.383Z,6.20
2024-02-05T01:41:20.281Z,6.20
2024-02-05T01:42:21.696Z,6.20
2024-02-05T01:43:24.166Z,6.20
2024-02-05T01:44:25.570Z,6.20
2024-02-05T01:45:27.203Z,6.20
2024-02-05T01:46:32.430Z,6.20
2024-02-05T01:47:35.879Z,6.30
2024-02-05T01:48:38.377Z,6.30
2024-02-05T01:49:40.059Z,6.40
2024-02-05T01:50:42.532Z,6.30
2024-02-05T01:51:48.242Z,6.40
2024-02-05T01:52:51.115Z,6.40
2024-02-05T01:53:55.513Z,6.40
2024-02-05T01:54:57.923Z,6.40
2024-02-05T01:55:59.635Z,6.30
2024-02-05T01:57:02.569Z,6.30
2024-02-05T01:58:04.509Z,6.30
2024-02-05T01:59:08.841Z,6.30
2024-02-05T02:00:12.172Z,6.30
2024-02-05T02:01:15.038Z,6.30
2024-02-05T02:02:16.945Z,6.30
2024-02-05T02:03:18.853Z,6.30
2024-02-05T02:04:20.775Z,6.30
2024-02-05T02:05:22.721Z,6.30
2024-02-05T02:06:25.599Z,6.30
2024-02-05T02:07:27.636Z,6.20
2024-02-05T02:08:29.595Z,6.10
2024-02-05T02:09:31.454Z,6.10
2024-02-05T02:10:33.844Z,6.10
2024-02-05T02:11:35.948Z,6.00
2024-02-05T02:12:37.616Z,6.00
2024-02-05T02:13:39.362Z,6.00
2024-02-05T02:14:40.794Z,6.00
2024-02-05T02:15:42.529Z,5.90
2024-02-05T02:16:44.878Z,5.90
2024-02-05T02:17:49.122Z,5.90
2024-02-05T02:18:53.289Z,5.90
2024-02-05T02:19:55.823Z,5.90
2024-02-05T02:21:00.246Z,5.90
2024-02-05T02:22:12.103Z,6.00
2024-02-05T02:23:23.489Z,6.00
2024-02-05T02:24:26.627Z,5.90
2024-02-05T02:25:28.140Z,5.80
2024-02-05T02:26:29.516Z,5.80
2024-02-05T02:27:31.020Z,5.70
2024-02-05T02:28:32.524Z,5.70
2024-02-05T02:29:34.447Z,5.80
2024-02-05T02:30:38.161Z,5.80
2024-02-05T02:31:40.461Z,5.80
2024-02-05T02:33:00.322Z,5.70
2024-02-05T02:34:32.738Z,5.70
2024-02-05T02:35:46.866Z,5.70
2024-02-05T02:36:57.066Z,5.70
2024-02-05T02:38:09.482Z,5.60
2024-02-05T02:39:20.528Z,5.60
2024-02-05T02:40:24.164Z,5.50
2024-02-05T02:41:33.057Z,5.50
2024-02-05T02:42:35.767Z,5.50
2024-02-05T02:43:48.990Z,5.40
2024-02-05T02:44:52.198Z,5.40
2024-02-05T02:45:54.766Z,5.40
2024-02-05T02:46:58.753Z,5.40
2024-02-05T02:48:01.012Z,5.40
2024-02-05T02:49:03.205Z,5.40
2024-02-05T02:50:05.529Z,5.40
2024-02-05T02:51:07.101Z,5.30
2024-02-05T02:52:08.486Z,5.30
2024-02-05T02:53:10.295Z,5.30
2024-02-05T02:54:11.717Z,5.30
2024-02-05T02:55:13.179Z,5.30
2024-02-05T02:56:15.343Z,5.30
2024-02-05T02:57:16.782Z,5.30
2024-02-05T02:58:18.414Z,5.30
2024-02-05T02:59:19.909Z,5.20
2024-02-05T03:00:21.694Z,5.20
2024-02-05T03:01:23.147Z,5.20
2024-02-05T03:02:25.666Z,5.20
2024-02-05T03:03:27.324Z,5.20
2024-02-05T03:04:28.939Z,5.30
2024-02-05T03:05:30.478Z,5.30
2024-02-05T03:06:33.352Z,5.20
2024-02-05T03:07:36.348Z,5.20
2024-02-05T03:08:38.160Z,5.10
2024-02-05T03:09:39.509Z,5.10
2024-02-05T03:10:40.927Z,5.00
2024-02-05T03:11:42.604Z,5.00
2024-02-05T03:12:44.057Z,5.00
2024-02-05T03:13:45.907Z,5.00
2024-02-05T03:14:47.979Z,5.10
2024-02-05T03:15:49.376Z,5.00
2024-02-05T03:16:50.821Z,5.10
2024-02-05T03:17:52.321Z,5.10
2024-02-05T03:18:53.850Z,5.10
2024-02-05T03:19:55.580Z,5.10
2024-02-05T03:20:57.089Z,5.10
2024-02-05T03:21:58.758Z,5.10
2024-02-05T03:23:08.344Z,5.20
2024-02-05T03:24:11.421Z,5.20
2024-02-05T03:25:13.767Z,5.20
2024-02-05T03:26:15.112Z,5.30
2024-02-05T03:27:16.816Z,5.40
2024-02-05T03:28:18.516Z,5.40
2024-02-05T03:29:20.295Z,5.40
2024-02-05T03:30:22.347Z,5.40
2024-02-05T03:31:23.732Z,5.40
2024-02-05T03:32:25.040Z,5.40
2024-02-05T03:33:26.890Z,5.40
2024-02-05T03:34:28.718Z,5.50
2024-02-05T03:35:30.396Z,5.50
2024-02-05T03:36:31.736Z,5.60
2024-02-05T03:37:33.285Z,5.60
2024-02-05T03:38:34.890Z,5.60
2024-02-05T03:39:36.526Z,5.60
2024-02-05T03:40:37.846Z,5.70
2024-02-05T03:41:39.888Z,5.60
2024-02-05T03:42:41.473Z,5.60
2024-02-05T03:43:43.012Z,5.70
2024-02-05T03:44:44.663Z,5.70
2024-02-05T03:45:46.183Z,5.70
2024-02-05T03:46:47.496Z,5.70
2024-02-05T03:47:49.544Z,5.70
2024-02-05T03:48:55.586Z,5.70
2024-02-05T03:49:57.218Z,5.80
2024-02-05T03:50:58.739Z,5.70
2024-02-05T03:52:00.153Z,5.80
2024-02-05T03:53:01.711Z,5.80
2024-02-05T03:54:06.057Z,5.90
2024-02-05T03:55:08.098Z,5.90
2024-02-05T03:56:10.614Z,5.80
2024-02-05T03:57:11.952Z,5.90
2024-02-05T03:58:13.410Z,5.90
2024-02-05T03:59:15.081Z,5.90
2024-02-05T04:00:21.724Z,5.90
2024-02-05T04:01:23.317Z,5.90
2024-02-05T04:02:26.408Z,5.90
2024-02-05T04:03:27.839Z,5.80
2024-02-05T04:04:29.694Z,5.80
2024-02-05T04:05:32.750Z,5.80
2024-02-05T04:06:34.638Z,5.90
2024-02-05T04:07:36.775Z,5.80
2024-02-05T04:08:38.270Z,5.80
2024-02-05T04:09:40.115Z,5.80
2024-02-05T04:10:41.421Z,5.80
2024-02-05T04:11:42.797Z,5.80
2024-02-05T04:12:44.240Z,5.80
2024-02-05T04:13:45.740Z,5.80
2024-02-05T04:14:47.434Z,5.80
2024-02-05T04:15:48.830Z,5.70
2024-02-05T04:16:50.295Z,5.70
2024-02-05T04:17:51.861Z,5.70
2024-02-05T04:18:53.358Z,5.70
2024-02-05T04:19:54.845Z,5.60
2024-02-05T04:20:58.484Z,5.60
2024-02-05T04:21:59.911Z,5.50
2024-02-05T04:23:04.730Z,5.50
2024-02-05T04:24:08.020Z,5.40
2024-02-05T04:25:10.253Z,5.50
2024-02-05T04:26:17.896Z,5.40
2024-02-05T04:27:19.326Z,5.40
2024-02-05T04:28:21.054Z,5.40
2024-02-05T04:29:26.071Z,5.30
2024-02-05T04:30:30.246Z,5.30
2024-02-05T04:31:31.708Z,5.30
2024-02-05T04:32:34.600Z,5.20
2024-02-05T04:33:36.233Z,5.20
2024-02-05T04:34:37.960Z,5.20
2024-02-05T04:35:39.906Z,5.10
2024-02-05T04:36:41.638Z,5.10
2024-02-05T04:37:44.049Z,5.10
2024-02-05T04:38:45.537Z,5.00
2024-02-05T04:39:47.097Z,4.90
2024-02-05T04:40:48.708Z,4.90
2024-02-05T04:41:50.892Z,4.90
2024-02-05T04:42:52.286Z,4.80
2024-02-05T04:43:53.837Z,4.80
2024-02-05T04:44:55.144Z,4.70
2024-02-05T04:45:56.638Z,4.70
2024-02-05T04:46:58.535Z,4.70
2024-02-05T04:48:00.080Z,4.70
2024-02-05T04:49:01.494Z,4.70
2024-02-05T04:50:03.580Z,4.70
2024-02-05T04:51:12.580Z,4.60
2024-02-05T04:52:14.500Z,4.70
2024-02-05T04:53:15.972Z,4.80
2024-02-05T04:54:17.508Z,4.80
2024-02-05T04:55:19.081Z,4.70
2024-02-05T04:56:20.680Z,4.70
2024-02-05T04:57:22.507Z,4.70
2024-02-05T04:58:24.077Z,4.70
2024-02-05T04:59:25.734Z,4.70
2024-02-05T05:00:27.336Z,4.60
2024-02-05T05:01:28.719Z,4.60
2024-02-05T05:02:30.123Z,4.60
2024-02-05T05:03:34.654Z,4.50
2024-02-05T05:04:37.939Z,4.60
2024-02-05T05:05:39.327Z,4.50
2024-02-05T05:06:44.747Z,4.50
2024-02-05T05:07:46.339Z,4.50
2024-02-05T05:08:47.863Z,4.50
2024-02-05T05:09:49.467Z,4.50
2024-02-05T05:10:50.817Z,4.50
2024-02-05T05:11:52.278Z,4.50
2024-02-05T05:12:53.625Z,4.40
2024-02-05T05:13:55.386Z,4.40
2024-02-05T05:14:57.035Z,4.40
2024-02-05T05:16:01.689Z,4.50
2024-02-05T05:17:03.067Z,4.50
2024-02-05T05:18:04.989Z,4.40
2024-02-05T05:19:06.610Z,4.40
2024-02-05T05:20:08.361Z,4.40
2024-02-05T05:21:10.638Z,4.30
2024-02-05T05:22:12.345Z,4.30
2024-02-05T05:23:15.953Z,4.40
2024-02-05T05:24:18.122Z,4.40
2024-02-05T05:25:19.556Z,4.30
2024-02-05T05:26:24.605Z,4.40
2024-02-05T05:27:25.976Z,4.40
2024-02-05T05:28:27.429Z,4.50
2024-02-05T05:29:28.766Z,4.50
2024-02-05T05:30:30.404Z,4.60
2024-02-05T05:31:31.804Z,4.60
2024-02-05T05:32:33.352Z,4.60
2024-02-05T05:33:35.238Z,4.60
2024-02-05T05:34:36.764Z,4.60
2024-02-05T05:35:38.170Z,4.60
2024-02-05T05:36:40.121Z,4.60
2024-02-05T05:37:42.469Z,4.60
2024-02-05T05:38:44.163Z,4.60
2024-02-05T05:39:46.030Z,4.60
2024-02-05T05:40:47.484Z,4.60
2024-02-05T05:41:49.004Z,4.60
2024-02-05T05:42:50.328Z,4.60
2024-02-05T05:43:53.506Z,4.60
2024-02-05T05:44:55.484Z,4.60
2024-02-05T05:45:57.601Z,4.60
2024-02-05T05:46:59.154Z,4.60
2024-02-05T05:48:00.577Z,4.50
2024-02-05T05:49:02.061Z,4.50
2024-02-05T05:50:07.529Z,4.50
2024-02-05T05:51:09.257Z,4.60
2024-02-05T05:52:10.675Z,4.60
2024-02-05T05:53:12.130Z,4.60
2024-02-05T05:54:13.572Z,4.50
2024-02-05T05:55:15.355Z,4.50
2024-02-05T05:56:16.894Z,4.60
2024-02-05T05:57:18.401Z,4.60
2024-02-05T05:58:20.612Z,4.50
2024-02-05T05:59:22.213Z,4.50
2024-02-05T06:00:24.025Z,4.50
2024-02-05T06:01:25.775Z,4.40
2024-02-05T06:02:27.173Z,4.40
2024-02-05T06:03:28.510Z,4.50
2024-02-05T06:04:30.007Z,4.40
2024-02-05T06:05:32.167Z,4.40
2024-02-05T06:06:34.962Z,4.40
2024-02-05T06:07:36.403Z,4.40
2024-02-05T06:08:38.131Z,4.30
2024-02-05T06:09:39.988Z,4.30
2024-02-05T06:10:43.420Z,4.30
2024-02-05T06:11:46.953Z,4.30
2024-02-05T06:12:48.567Z,4.40
2024-02-05T06:13:50.528Z,4.40
2024-02-05T06:14:52.192Z,4.30
2024-02-05T06:15:53.486Z,4.40
2024-02-05T06:16:54.895Z,4.40
2024-02-05T06:17:56.270Z,4.30
2024-02-05T06:18:57.733Z,4.30
2024-02-05T06:19:59.292Z,4.30
2024-02-05T06:21:01.183Z,4.30
2024-02-05T06:22:02.932Z,4.30
2024-02-05T06:23:06.799Z,4.30
2024-02-05T06:24:08.239Z,4.20
2024-02-05T06:25:09.978Z,4.20
2024-02-05T06:26:13.111Z,4.30
2024-02-05T06:27:14.796Z,4.40
2024-02-05T06:28:17.328Z,4.40
2024-02-05T06:29:19.089Z,4.30
2024-02-05T06:30:20.582Z,4.30
2024-02-05T06:31:22.298Z,4.40
2024-02-05T06:32:23.696Z,4.30
2024-02-05T06:33:25.218Z,4.30
2024-02-05T06:34:26.680Z,4.30
2024-02-05T06:35:28.067Z,4.30
2024-02-05T06:36:29.404Z,4.30
2024-02-05T06:37:30.756Z,4.40
2024-02-05T06:38:32.279Z,4.40
2024-02-05T06:39:33.659Z,4.30
2024-02-05T06:40:35.080Z,4.30
2024-02-05T06:41:36.541Z,4.30
2024-02-05T06:42:38.311Z,4.30
2024-02-05T06:43:41.408Z,4.30
2024-02-05T06:44:46.376Z,4.30
2024-02-05T06:45:48.198Z,4.40
2024-02-05T06:46:49.718Z,4.40
2024-02-05T06:47:52.989Z,4.40
2024-02-05T06:48:54.712Z,4.40
2024-02-05T06:49:56.691Z,4.50
2024-02-05T06:50:58.282Z,4.50
2024-02-05T06:51:59.957Z,4.60
2024-02-05T06:53:01.423Z,4.60
2024-02-05T06:54:02.828Z,4.50
2024-02-05T06:55:04.649Z,4.50
2024-02-05T06:56:06.323Z,4.50
2024-02-05T06:57:07.697Z,4.50
2024-02-05T06:58:09.323Z,4.50
2024-02-05T06:59:10.678Z,4.50
2024-02-05T07:00:13.527Z,4.50
2024-02-05T07:01:15.291Z,4.50
2024-02-05T07:02:20.100Z,4.40
2024-02-05T07:03:22.821Z,4.50
2024-02-05T07:04:24.288Z,4.50
2024-02-05T07:05:25.722Z,4.50
2024-02-05T07:06:27.099Z,4.50
2024-02-05T07:07:29.447Z,4.50
2024-02-05T07:08:30.893Z,4.60
2024-02-05T07:09:32.259Z,4.70
2024-02-05T07:10:33.698Z,4.70
2024-02-05T07:11:35.720Z,4.70
2024-02-05T07:12:39.669Z,4.60
2024-02-05T07:13:42.010Z,4.70
2024-02-05T07:14:43.342Z,4.70
2024-02-05T07:15:45.128Z,4.60
2024-02-05T07:16:47.317Z,4.60
2024-02-05T07:17:49.235Z,4.60
2024-02-05T07:18:50.921Z,4.60
2024-02-05T07:19:52.459Z,4.60
2024-02-05T07:20:54.798Z,4.60
2024-02-05T07:21:56.348Z,4.50
2024-02-05T07:22:57.834Z,4.50
2024-02-05T07:23:59.155Z,4.50
2024-02-05T07:25:00.806Z,4.50
2024-02-05T07:26:03.143Z,4.40
2024-02-05T07:27:04.836Z,4.40
2024-02-05T07:28:07.139Z,4.30
2024-02-05T07:29:08.695Z,4.40
2024-02-05T07:30:11.166Z,4.40
2024-02-05T07:31:12.865Z,4.30
2024-02-05T07:32:14.419Z,4.30
2024-02-05T07:33:16.339Z,4.20
2024-02-05T07:34:17.934Z,4.20
2024-02-05T07:35:23.131Z,4.10
2024-02-05T07:36:24.787Z,4.10
2024-02-05T07:37:26.203Z,4.10
2024-02-05T07:38:27.743Z,4.10
2024-02-05T07:39:29.761Z,4.00
2024-02-05T07:40:31.333Z,4.00
2024-02-05T07:41:32.752Z,4.00
2024-02-05T07:42:34.242Z,3.90
2024-02-05T07:43:39.377Z,3.90
2024-02-05T07:44:41.600Z,3.80
2024-02-05T07:45:43.039Z,3.80
2024-02-05T07:46:44.822Z,3.80
2024-02-05T07:47:46.368Z,3.80
2024-02-05T07:48:47.772Z,3.80
2024-02-05T07:49:49.217Z,3.80
2024-02-05T07:50:50.761Z,3.80
2024-02-05T07:51:52.894Z,3.80
2024-02-05T07:52:54.768Z,3.90
2024-02-05T07:53:56.265Z,4.00
2024-02-05T07:54:57.951Z,3.90
2024-02-05T07:55:59.962Z,3.80
2024-02-05T07:57:03.956Z,3.70
2024-02-05T07:58:05.616Z,3.70
2024-02-05T07:59:07.482Z,3.70
2024-02-05T08:00:09.433Z,3.70
2024-02-05T08:01:14.241Z,3.70
2024-02-05T08:02:15.896Z,3.70
2024-02-05T08:03:17.987Z,3.60
2024-02-05T08:04:20.507Z,3.60
2024-02-05T08:05:22.066Z,3.60
2024-02-05T08:06:24.818Z,3.60
2024-02-05T08:07:26.858Z,3.60
2024-02-05T08:08:29.924Z,3.60
2024-02-05T08:09:34.677Z,3.60
2024-02-05T08:10:38.415Z,3.50
2024-02-05T08:11:43.557Z,3.50
2024-02-05T08:12:45.372Z,3.50
2024-02-05T08:13:46.988Z,3.60
2024-02-05T08:14:48.478Z,3.60
2024-02-05T08:15:50.485Z,3.60
2024-02-05T08:16:52.283Z,3.60
2024-02-05T08:17:54.105Z,3.70
2024-02-05T08:18:56.249Z,3.60
2024-02-05T08:19:58.533Z,3.60
2024-02-05T08:21:01.204Z,3.70
2024-02-05T08:22:03.315Z,3.70
2024-02-05T08:23:05.464Z,3.70
2024-02-05T08:24:07.180Z,3.80
2024-02-05T08:25:09.096Z,3.80
2024-02-05T08:26:12.768Z,3.80
2024-02-05T08:27:14.672Z,3.80
2024-02-05T08:28:16.588Z,3.80
2024-02-05T08:29:19.980Z,3.90
2024-02-05T08:30:21.387Z,3.90
2024-02-05T08:31:26.299Z,3.90
2024-02-05T08:32:28.165Z,4.00
2024-02-05T08:33:31.566Z,4.00
2024-02-05T08:34:33.047Z,4.10
2024-02-05T08:35:34.589Z,4.10
2024-02-05T08:36:35.927Z,4.30
2024-02-05T08:37:37.733Z,4.30
2024-02-05T08:38:39.147Z,4.30
2024-02-05T08:39:41.129Z,4.30
2024-02-05T08:40:43.287Z,4.40
2024-02-05T08:41:44.867Z,4.50
2024-02-05T08:42:46.427Z,4.60
2024-02-05T08:43:48.004Z,4.60
2024-02-05T08:44:49.947Z,4.60
2024-02-05T08:45:51.874Z,4.70
2024-02-05T08:46:54.911Z,4.80
2024-02-05T08:47:57.134Z,4.80
2024-02-05T08:48:58.887Z,4.90
2024-02-05T08:50:00.692Z,4.90
2024-02-05T08:51:02.387Z,5.00
2024-02-05T08:52:04.115Z,5.10
2024-02-05T08:53:05.494Z,5.10
2024-02-05T08:54:07.424Z,5.20
2024-02-05T08:55:09.900Z,5.30
2024-02-05T08:56:11.654Z,5.30
2024-02-05T08:57:13.046Z,5.40
2024-02-05T08:58:15.154Z,5.40
2024-02-05T08:59:16.744Z,5.50
2024-02-05T09:00:20.411Z,5.50
2024-02-05T09:01:21.913Z,5.50
2024-02-05T09:02:24.170Z,5.60
2024-02-05T09:03:25.816Z,5.70
2024-02-05T09:04:27.353Z,5.70
2024-02-05T09:05:37.574Z,5.90
2024-02-05T09:06:42.951Z,5.90
2024-02-05T09:07:45.228Z,6.00
2024-02-05T09:08:46.666Z,6.10
2024-02-05T09:09:48.279Z,6.20
2024-02-05T09:10:50.175Z,6.20
2024-02-05T09:12:01.219Z,6.20
2024-02-05T09:13:08.250Z,6.20
2024-02-05T09:14:10.338Z,6.20
2024-02-05T09:15:12.045Z,6.30
2024-02-05T09:16:13.752Z,6.30
2024-02-05T09:17:16.952Z,6.40
2024-02-05T09:18:18.314Z,6.40
2024-02-05T09:19:20.150Z,6.50
2024-02-05T09:20:22.925Z,6.50
2024-02-05T09:21:24.322Z,6.70
2024-02-05T09:22:25.897Z,6.70
2024-02-05T09:23:27.311Z,6.80
2024-02-05T09:24:28.677Z,6.80
2024-02-05T09:25:30.249Z,6.90
2024-02-05T09:26:31.609Z,7.00
2024-02-05T09:27:33.423Z,7.10
2024-02-05T09:28:34.908Z,7.10
2024-02-05T09:29:36.212Z,7.10
2024-02-05T09:30:41.252Z,7.20
2024-02-05T09:31:43.410Z,7.20
2024-02-05T09:32:45.031Z,7.20
2024-02-05T09:33:46.404Z,7.30
2024-02-05T09:34:48.308Z,7.40
2024-02-05T09:35:50.256Z,7.40
2024-02-05T09:36:51.903Z,7.50
2024-02-05T09:37:53.333Z,7.60
2024-02-05T09:38:54.733Z,7.60
2024-02-05T09:39:56.761Z,7.70
2024-02-05T09:41:06.500Z,7.70
2024-02-05T09:42:12.505Z,7.80
2024-02-05T09:43:15.201Z,7.80
2024-02-05T09:44:17.749Z,7.90
2024-02-05T09:45:20.142Z,7.90
2024-02-05T09:46:23.918Z,8.00
2024-02-05T09:47:28.016Z,8.10
2024-02-05T09:48:37.762Z,8.10
2024-02-05T09:49:42.893Z,8.20
2024-02-05T09:50:44.600Z,8.20
2024-02-05T09:51:46.310Z,8.30
2024-02-05T09:52:48.986Z,8.30
2024-02-05T09:53:53.280Z,8.30
2024-02-05T09:54:57.428Z,8.30
2024-02-05T09:55:58.949Z,8.40
2024-02-05T09:57:01.336Z,8.50
2024-02-05T09:58:03.139Z,8.50
2024-02-05T09:59:04.959Z,8.60
2024-02-05T10:00:06.966Z,8.60
2024-02-05T10:01:09.896Z,8.60
2024-02-05T10:02:15.863Z,8.70
2024-02-05T10:03:18.979Z,8.70
2024-02-05T10:04:22.584Z,8.90
2024-02-05T10:05:26.019Z,8.80
2024-02-05T10:06:34.563Z,8.80
2024-02-05T10:07:38.909Z,8.80
2024-02-05T10:08:41.661Z,8.80
2024-02-05T10:09:43.976Z,8.80
2024-02-05T10:10:46.728Z,8.90
2024-02-05T10:11:51.211Z,8.90
2024-02-05T10:12:54.702Z,8.90
2024-02-05T10:13:57.009Z,8.90
2024-02-05T10:14:59.548Z,9.00
2024-02-05T10:16:00.877Z,9.00
2024-02-05T10:17:05.675Z,9.10
2024-02-05T10:18:07.558Z,9.20
2024-02-05T10:19:09.071Z,9.20
2024-02-05T10:20:14.413Z,9.20
2024-02-05T10:21:17.137Z,9.20
2024-02-05T10:22:18.621Z,9.30
2024-02-05T10:23:21.059Z,9.30
2024-02-05T10:24:24.332Z,9.20
2024-02-05T10:25:28.580Z,9.20
2024-02-05T10:26:32.962Z,9.20
2024-02-05T10:27:34.996Z,9.20
2024-02-05T10:28:39.131Z,9.20
2024-02-05T10:29:41.076Z,9.00
2024-02-05T10:30:42.636Z,8.90
2024-02-05T10:31:50.461Z,8.80
2024-02-05T10:33:00.132Z,8.60
2024-02-05T10:34:01.775Z,8.50
2024-02-05T10:35:03.624Z,8.50
2024-02-05T10:36:05.773Z,8.50
2024-02-05T10:37:09.899Z,8.50
2024-02-05T10:38:12.290Z,8.40
2024-02-05T10:39:25.247Z,8.40
2024-02-05T10:40:26.904Z,8.40
2024-02-05T10:41:28.601Z,8.50
2024-02-05T10:42:30.303Z,8.60
2024-02-05T10:43:32.337Z,8.60
2024-02-05T10:44:40.690Z,8.70
2024-02-05T10:45:43.957Z,8.80
2024-02-05T10:46:46.860Z,8.80
2024-02-05T10:47:48.317Z,8.90
2024-02-05T10:48:50.346Z,8.90
2024-02-05T10:49:51.876Z,9.00
2024-02-05T10:50:53.679Z,9.00
2024-02-05T10:51:56.706Z,9.10
2024-02-05T10:52:59.447Z,9.00
2024-02-05T10:54:02.419Z,8.90
2024-02-05T10:55:07.933Z,8.90
2024-02-05T10:56:12.409Z,8.80
2024-02-05T10:57:18.254Z,8.70
2024-02-05T10:58:21.139Z,8.50
2024-02-05T10:59:24.441Z,8.30
2024-02-05T11:00:25.847Z,8.30
2024-02-05T11:01:37.350Z,8.40
2024-02-05T11:02:42.812Z,8.30
2024-02-05T11:03:45.320Z,8.20
2024-02-05T11:04:48.160Z,8.30
2024-02-05T11:05:56.903Z,8.30
2024-02-05T11:07:01.088Z,8.20
2024-02-05T11:08:10.529Z,8.10
2024-02-05T11:09:15.127Z,8.10
2024-02-05T11:10:21.817Z,8.00
2024-02-05T11:11:23.427Z,7.90
2024-02-05T11:12:28.260Z,7.90
2024-02-05T11:13:44.285Z,7.90
2024-02-05T11:14:48.469Z,7.90
2024-02-05T11:15:52.849Z,8.00
2024-02-05T11:16:55.223Z,8.10
2024-02-05T11:17:58.427Z,8.10
2024-02-05T11:19:01.364Z,8.00
2024-02-05T11:20:06.018Z,8.00
2024-02-05T11:21:09.391Z,8.10
2024-02-05T11:22:12.036Z,8.20
2024-02-05T11:23:17.304Z,8.20
2024-02-05T11:24:20.416Z,8.20
2024-02-05T11:25:22.252Z,8.30
2024-02-05T11:26:25.824Z,8.20
2024-02-05T11:27:27.317Z,8.20
2024-02-05T11:28:29.902Z,8.20
2024-02-05T11:29:33.625Z,8.20
2024-02-05T11:30:37.502Z,8.20
2024-02-05T11:31:40.573Z,8.20
2024-02-05T11:32:41.987Z,8.20
2024-02-05T11:33:44.896Z,8.20
2024-02-05T11:34:47.014Z,8.30
2024-02-05T11:35:51.433Z,8.30
2024-02-05T11:36:54.767Z,8.30
2024-02-05T11:38:14.467Z,8.40
2024-02-05T11:39:18.362Z,8.50
2024-02-05T11:40:23.142Z,8.50
2024-02-05T11:41:24.640Z,8.50
2024-02-05T11:42:28.861Z,8.40
2024-02-05T11:43:31.161Z,8.50
2024-02-05T11:44:32.905Z,8.60
2024-02-05T11:45:36.209Z,8.60
2024-02-05T11:46:39.326Z,8.70
2024-02-05T11:47:40.832Z,8.70
2024-02-05T11:48:43.757Z,8.70
2024-02-05T11:49:46.169Z,8.70
2024-02-05T11:50:48.857Z,8.80
2024-02-05T11:51:50.268Z,8.80
2024-02-05T11:52:51.744Z,8.90
2024-02-05T11:53:55.469Z,8.90
2024-02-05T11:54:57.696Z,8.90
2024-02-05T11:55:59.157Z,9.10
2024-02-05T11:57:00.605Z,9.10
2024-02-05T11:58:02.259Z,9.10
2024-02-05T11:59:09.448Z,9.20
2024-02-05T12:00:16.049Z,9.20
2024-02-05T12:01:18.513Z,9.20
2024-02-05T12:02:19.969Z,9.20
2024-02-05T12:03:22.608Z,9.20
2024-02-05T12:04:24.960Z,9.30
2024-02-05T12:05:27.694Z,9.30
2024-02-05T12:06:30.373Z,9.30
2024-02-05T12:07:33.249Z,9.30
2024-02-05T12:08:34.958Z,9.40
2024-02-05T12:09:37.442Z,9.40
2024-02-05T12:10:40.474Z,9.50
2024-02-05T12:11:42.617Z,9.50
2024-02-05T12:12:44.126Z,9.40
2024-02-05T12:13:55.815Z,9.40
2024-02-05T12:14:57.131Z,9.40
2024-02-05T12:16:11.981Z,9.50
2024-02-05T12:17:14.630Z,9.60
2024-02-05T12:18:16.228Z,9.60
2024-02-05T12:19:23.514Z,9.60
2024-02-05T12:20:27.845Z,9.60
2024-02-05T12:21:32.426Z,9.40
2024-02-05T12:22:34.156Z,9.10
2024-02-05T12:23:36.711Z,9.10
2024-02-05T12:24:39.216Z,9.00
2024-02-05T12:25:43.020Z,9.00
2024-02-05T12:26:46.278Z,9.00
2024-02-05T12:27:48.516Z,9.10
2024-02-05T12:28:52.785Z,9.20
2024-02-05T12:30:07.078Z,9.30
2024-02-05T12:31:08.752Z,9.30
2024-02-05T12:32:11.061Z,9.30
2024-02-05T12:33:16.920Z,9.40
2024-02-05T12:34:19.115Z,9.30
2024-02-05T12:35:21.670Z,9.30
2024-02-05T12:36:24.007Z,9.30
2024-02-05T12:37:29.589Z,9.30
2024-02-05T12:38:31.846Z,9.40
2024-02-05T12:39:33.825Z,9.40
2024-02-05T12:40:35.294Z,9.40
2024-02-05T12:41:36.647Z,9.40
2024-02-05T12:42:38.734Z,9.40
2024-02-05T12:43:40.407Z,9.50
2024-02-05T12:44:47.267Z,9.50
2024-02-05T12:45:55.703Z,9.60
2024-02-05T12:46:57.185Z,9.60
2024-02-05T12:47:59.983Z,9.50
2024-02-05T12:49:01.780Z,9.50
2024-02-05T12:50:04.209Z,9.50
2024-02-05T12:51:09.047Z,9.50
2024-02-05T12:52:10.905Z,9.60
2024-02-05T12:53:13.256Z,9.60
2024-02-05T12:54:16.192Z,9.60
2024-02-05T12:55:18.039Z,9.60
2024-02-05T12:56:19.875Z,9.70
2024-02-05T12:57:22.173Z,9.70
2024-02-05T12:58:24.222Z,9.70
2024-02-05T12:59:26.046Z,9.70
2024-02-05T13:00:27.493Z,9.80
2024-02-05T13:01:31.050Z,9.80
2024-02-05T13:02:33.156Z,9.80
2024-02-05T13:03:34.899Z,9.80
2024-02-05T13:04:37.211Z,9.80
2024-02-05T13:05:44.639Z,9.80
2024-02-05T13:06:46.606Z,9.90
2024-02-05T13:07:50.706Z,9.90
2024-02-05T13:08:58.984Z,10.00
2024-02-05T13:10:04.798Z,10.00
2024-02-05T13:11:06.733Z,10.00
2024-02-05T13:12:08.378Z,10.00
2024-02-05T13:13:11.538Z,10.10
2024-02-05T13:14:12.889Z,10.10
2024-02-05T13:15:14.605Z,10.10
2024-02-05T13:16:16.299Z,10.20
2024-02-05T13:17:17.858Z,10.20
2024-02-05T13:18:20.082Z,10.10
2024-02-05T13:19:21.688Z,10.10
2024-02-05T13:20:23.192Z,10.20
2024-02-05T13:21:26.532Z,10.20
2024-02-05T13:22:28.148Z,10.20
2024-02-05T13:23:29.701Z,10.10
2024-02-05T13:24:31.329Z,10.10
2024-02-05T13:25:36.045Z,10.10
2024-02-05T13:26:49.897Z,10.10
2024-02-05T13:27:51.657Z,10.10
2024-02-05T13:28:53.432Z,10.10
2024-02-05T13:29:54.907Z,10.20
2024-02-05T13:30:56.463Z,10.10
2024-02-05T13:31:57.986Z,10.10
2024-02-05T13:32:59.456Z,10.00
2024-02-05T13:34:01.167Z,10.00
2024-02-05T13:35:02.755Z,10.00
2024-02-05T13:36:05.114Z,10.00
2024-02-05T13:37:06.491Z,10.10
2024-02-05T13:38:07.887Z,10.10
2024-02-05T13:39:09.327Z,10.10
2024-02-05T13:40:11.834Z,10.20
2024-02-05T13:41:13.734Z,10.20
2024-02-05T13:42:15.482Z,10.20
2024-02-05T13:43:17.214Z,10.20
2024-02-05T13:44:20.481Z,10.30
2024-02-05T13:45:23.961Z,10.30
2024-02-05T13:46:25.789Z,10.30
2024-02-05T13:47:27.461Z,10.40
2024-02-05T13:48:30.222Z,10.40
2024-02-05T13:49:34.330Z,10.40
2024-02-05T13:50:36.143Z,10.40
2024-02-05T13:51:37.573Z,10.40
2024-02-05T13:52:42.921Z,10.50